sensor_id;sensor_type;location;lat;lon;timestamp;pressure;altitude;pressure_sealevel;temperature;humidity
77877;BME280;67251;50.844;7.978;2024-01-16T00:00:31;97949.28;;;-2.25;100.00
77877;BME280;67251;50.844;7.978;2024-01-16T00:02:57;97962.22;;;-2.24;100.00
77877;BME280;67251;50.844;7.978;2024-01-16T00:05:22;97958.63;;;-2.23;100.00
77877;BME280;67251;50.844;7.978;2024-01-16T00:07:47;97947.31;;;-2.23;100.00
77877;BME280;67251;50.844;7.978;2024-01-16T00:10:13;97961.25;;;-2.23;100.00
77877;BME280;67251;50.844;7.978;2024-01-16T00:12:38;97959.34;;;-2.21;100.00
77877;BME280;67251;50.844;7.978;2024-01-16T00:15:06;97966.22;;;-2.20;100.00
77877;BME280;67251;50.844;7.978;2024-01-16T00:17:31;97975.56;;;-2.17;100.00
77877;BME280;67251;50.844;7.978;2024-01-16T00:19:57;97970.31;;;-2.17;100.00
77877;BME280;67251;50.844;7.978;2024-01-16T00:22:28;97978.06;;;-2.16;100.00
77877;BME280;67251;50.844;7.978;2024-01-16T00:24:54;97970.06;;;-2.14;100.00
77877;BME280;67251;50.844;7.978;2024-01-16T00:27:19;97977.91;;;-2.14;100.00
77877;BME280;67251;50.844;7.978;2024-01-16T00:29:44;97973.50;;;-2.14;100.00
77877;BME280;67251;50.844;7.978;2024-01-16T00:32:10;97980.53;;;-2.14;100.00
77877;BME280;67251;50.844;7.978;2024-01-16T00:34:35;97985.63;;;-2.13;100.00
77877;BME280;67251;50.844;7.978;2024-01-16T00:37:01;97983.81;;;-2.12;100.00
77877;BME280;67251;50.844;7.978;2024-01-16T00:39:26;97983.00;;;-2.13;100.00
77877;BME280;67251;50.844;7.978;2024-01-16T00:41:51;97982.06;;;-2.12;100.00
77877;BME280;67251;50.844;7.978;2024-01-16T00:44:17;97989.06;;;-2.12;100.00
77877;BME280;67251;50.844;7.978;2024-01-16T00:46:42;97994.31;;;-2.12;100.00
77877;BME280;67251;50.844;7.978;2024-01-16T00:49:08;97995.16;;;-2.12;100.00
77877;BME280;67251;50.844;7.978;2024-01-16T00:51:33;98002.19;;;-2.12;100.00
77877;BME280;67251;50.844;7.978;2024-01-16T00:53:59;97997.09;;;-2.14;100.00
77877;BME280;67251;50.844;7.978;2024-01-16T00:56:24;98002.31;;;-2.14;100.00
77877;BME280;67251;50.844;7.978;2024-01-16T00:58:52;98007.56;;;-2.14;100.00
77877;BME280;67251;50.844;7.978;2024-01-16T01:01:19;98011.84;;;-2.13;100.00
77877;BME280;67251;50.844;7.978;2024-01-16T01:03:44;98004.78;;;-2.12;100.00
77877;BME280;67251;50.844;7.978;2024-01-16T01:06:09;98006.59;;;-2.13;100.00
77877;BME280;67251;50.844;7.978;2024-01-16T01:08:35;98014.59;;;-2.14;100.00
77877;BME280;67251;50.844;7.978;2024-01-16T01:11:00;98008.53;;;-2.15;100.00
77877;BME280;67251;50.844;7.978;2024-01-16T01:13:26;98008.53;;;-2.15;100.00
77877;BME280;67251;50.844;7.978;2024-01-16T01:15:51;98008.81;;;-2.18;100.00
77877;BME280;67251;50.844;7.978;2024-01-16T01:18:17;98011.31;;;-2.16;100.00
77877;BME280;67251;50.844;7.978;2024-01-16T01:20:42;98014.75;;;-2.16;100.00
77877;BME280;67251;50.844;7.978;2024-01-16T01:23:07;98013.94;;;-2.16;100.00
77877;BME280;67251;50.844;7.978;2024-01-16T01:25:33;98016.69;;;-2.18;100.00
77877;BME280;67251;50.844;7.978;2024-01-16T01:27:58;98012.25;;;-2.17;100.00
77877;BME280;67251;50.844;7.978;2024-01-16T01:30:23;98014.22;;;-2.19;100.00
77877;BME280;67251;50.844;7.978;2024-01-16T01:32:49;98016.00;;;-2.20;100.00
77877;BME280;67251;50.844;7.978;2024-01-16T01:35:17;98023.03;;;-2.20;100.00
77877;BME280;67251;50.844;7.978;2024-01-16T01:37:44;98025.78;;;-2.22;100.00
77877;BME280;67251;50.844;7.978;2024-01-16T01:40:10;98030.75;;;-2.19;100.00
77877;BME280;67251;50.844;7.978;2024-01-16T01:48:40;98037.09;;;-2.21;100.00
77877;BME280;67251;50.844;7.978;2024-01-16T01:51:06;98038.22;;;-2.24;100.00
77877;BME280;67251;50.844;7.978;2024-01-16T01:53:32;98049.78;;;-2.26;100.00
77877;BME280;67251;50.844;7.978;2024-01-16T01:55:59;98051.47;;;-2.25;100.00
77877;BME280;67251;50.844;7.978;2024-01-16T01:58:24;98041.09;;;-2.27;100.00
77877;BME280;67251;50.844;7.978;2024-01-16T02:00:50;98044.69;;;-2.28;100.00
77877;BME280;67251;50.844;7.978;2024-01-16T02:03:16;98046.34;;;-2.27;100.00
77877;BME280;67251;50.844;7.978;2024-01-16T02:05:42;98050.75;;;-2.27;100.00
77877;BME280;67251;50.844;7.978;2024-01-16T02:08:07;98050.59;;;-2.26;100.00
77877;BME280;67251;50.844;7.978;2024-01-16T02:10:35;98048.97;;;-2.27;100.00
77877;BME280;67251;50.844;7.978;2024-01-16T02:13:02;98053.09;;;-2.24;100.00
77877;BME280;67251;50.844;7.978;2024-01-16T02:15:28;98057.66;;;-2.26;100.00
77877;BME280;67251;50.844;7.978;2024-01-16T02:17:54;98050.50;;;-2.24;100.00
77877;BME280;67251;50.844;7.978;2024-01-16T02:20:19;98045.09;;;-2.23;100.00
77877;BME280;67251;50.844;7.978;2024-01-16T02:22:47;98049.50;;;-2.23;100.00
77877;BME280;67251;50.844;7.978;2024-01-16T02:25:16;98051.47;;;-2.25;100.00
77877;BME280;67251;50.844;7.978;2024-01-16T02:27:41;98051.59;;;-2.27;100.00
77877;BME280;67251;50.844;7.978;2024-01-16T02:30:07;98056.81;;;-2.27;100.00
77877;BME280;67251;50.844;7.978;2024-01-16T02:32:32;98063.03;;;-2.28;100.00
77877;BME280;67251;50.844;7.978;2024-01-16T02:34:58;98068.28;;;-2.28;100.00
77877;BME280;67251;50.844;7.978;2024-01-16T02:37:23;98055.31;;;-2.29;100.00
77877;BME280;67251;50.844;7.978;2024-01-16T02:39:49;98067.44;;;-2.28;100.00
77877;BME280;67251;50.844;7.978;2024-01-16T02:42:14;98066.78;;;-2.30;100.00
77877;BME280;67251;50.844;7.978;2024-01-16T02:44:40;98061.66;;;-2.32;100.00
77877;BME280;67251;50.844;7.978;2024-01-16T02:47:05;98068.84;;;-2.34;100.00
77877;BME280;67251;50.844;7.978;2024-01-16T02:49:32;98070.63;;;-2.35;100.00
77877;BME280;67251;50.844;7.978;2024-01-16T02:51:58;98068.13;;;-2.36;100.00
77877;BME280;67251;50.844;7.978;2024-01-16T02:54:24;98072.69;;;-2.38;100.00
77877;BME280;67251;50.844;7.978;2024-01-16T02:56:49;98080.81;;;-2.41;100.00
77877;BME280;67251;50.844;7.978;2024-01-16T02:59:15;98080.97;;;-2.43;100.00
77877;BME280;67251;50.844;7.978;2024-01-16T03:01:40;98082.88;;;-2.45;100.00
77877;BME280;67251;50.844;7.978;2024-01-16T03:04:06;98090.75;;;-2.45;100.00
77877;BME280;67251;50.844;7.978;2024-01-16T03:06:31;98087.19;;;-2.44;100.00
77877;BME280;67251;50.844;7.978;2024-01-16T03:08:56;98089.66;;;-2.42;100.00
77877;BME280;67251;50.844;7.978;2024-01-16T03:11:22;98086.22;;;-2.43;100.00
77877;BME280;67251;50.844;7.978;2024-01-16T03:13:47;98081.78;;;-2.42;100.00
77877;BME280;67251;50.844;7.978;2024-01-16T03:16:14;98083.44;;;-2.41;100.00
77877;BME280;67251;50.844;7.978;2024-01-16T03:18:40;98075.59;;;-2.41;100.00
77877;BME280;67251;50.844;7.978;2024-01-16T03:21:06;98084.28;;;-2.41;100.00
77877;BME280;67251;50.844;7.978;2024-01-16T03:23:31;98075.59;;;-2.41;100.00
77877;BME280;67251;50.844;7.978;2024-01-16T03:25:57;98087.03;;;-2.42;100.00
77877;BME280;67251;50.844;7.978;2024-01-16T03:28:22;98086.22;;;-2.43;100.00
77877;BME280;67251;50.844;7.978;2024-01-16T03:30:48;98080.16;;;-2.43;100.00
77877;BME280;67251;50.844;7.978;2024-01-16T03:33:13;98080.16;;;-2.43;100.00
77877;BME280;67251;50.844;7.978;2024-01-16T03:35:39;98075.88;;;-2.44;100.00
77877;BME280;67251;50.844;7.978;2024-01-16T03:38:04;98068.97;;;-2.45;100.00
77877;BME280;67251;50.844;7.978;2024-01-16T03:40:29;98077.66;;;-2.45;100.00
77877;BME280;67251;50.844;7.978;2024-01-16T03:43:02;98061.09;;;-2.45;100.00
77877;BME280;67251;50.844;7.978;2024-01-16T03:45:27;98073.38;;;-2.46;100.00
77877;BME280;67251;50.844;7.978;2024-01-16T03:47:53;98067.47;;;-2.48;100.00
77877;BME280;67251;50.844;7.978;2024-01-16T03:50:18;98073.53;;;-2.47;100.00
77877;BME280;67251;50.844;7.978;2024-01-16T03:52:43;98058.78;;;-2.48;100.00
77877;BME280;67251;50.844;7.978;2024-01-16T03:55:09;98063.19;;;-2.49;100.00
77877;BME280;67251;50.844;7.978;2024-01-16T03:57:34;98072.81;;;-2.49;100.00
77877;BME280;67251;50.844;7.978;2024-01-16T04:00:00;98071.16;;;-2.50;100.00
77877;BME280;67251;50.844;7.978;2024-01-16T04:02:25;98075.59;;;-2.51;100.00
77877;BME280;67251;50.844;7.978;2024-01-16T04:04:50;98073.94;;;-2.52;100.00
77877;BME280;67251;50.844;7.978;2024-01-16T04:07:16;98068.69;;;-2.52;100.00
77877;BME280;67251;50.844;7.978;2024-01-16T04:09:42;98075.59;;;-2.51;100.00
77877;BME280;67251;50.844;7.978;2024-01-16T04:12:08;98070.50;;;-2.52;100.00
77877;BME280;67251;50.844;7.978;2024-01-16T04:14:33;98064.28;;;-2.51;100.00
77877;BME280;67251;50.844;7.978;2024-01-16T04:16:59;98065.25;;;-2.52;100.00
77877;BME280;67251;50.844;7.978;2024-01-16T04:19:24;98067.88;;;-2.52;100.00
77877;BME280;67251;50.844;7.978;2024-01-16T04:21:49;98065.25;;;-2.52;100.00
77877;BME280;67251;50.844;7.978;2024-01-16T04:24:15;98056.44;;;-2.51;100.00
77877;BME280;67251;50.844;7.978;2024-01-16T04:26:40;98058.78;;;-2.48;100.00
77877;BME280;67251;50.844;7.978;2024-01-16T04:29:05;98063.88;;;-2.47;100.00
77877;BME280;67251;50.844;7.978;2024-01-16T04:31:32;98064.69;;;-2.46;100.00
77877;BME280;67251;50.844;7.978;2024-01-16T04:34:03;98066.34;;;-2.45;100.00
77877;BME280;67251;50.844;7.978;2024-01-16T04:36:28;98061.09;;;-2.45;100.00
77877;BME280;67251;50.844;7.978;2024-01-16T04:38:54;98065.41;;;-2.44;100.00
77877;BME280;67251;50.844;7.978;2024-01-16T04:41:19;98076.81;;;-2.45;100.00
77877;BME280;67251;50.844;7.978;2024-01-16T04:43:44;98075.03;;;-2.45;100.00
77877;BME280;67251;50.844;7.978;2024-01-16T04:46:10;98075.19;;;-2.46;100.00
77877;BME280;67251;50.844;7.978;2024-01-16T04:48:36;98075.19;;;-2.46;100.00
77877;BME280;67251;50.844;7.978;2024-01-16T04:51:01;98069.13;;;-2.47;100.00
77877;BME280;67251;50.844;7.978;2024-01-16T04:53:26;98068.13;;;-2.46;100.00
77877;BME280;67251;50.844;7.978;2024-01-16T04:55:52;98075.19;;;-2.46;100.00
77877;BME280;67251;50.844;7.978;2024-01-16T04:58:17;98077.78;;;-2.46;100.00
77877;BME280;67251;50.844;7.978;2024-01-16T05:00:43;98080.41;;;-2.46;100.00
77877;BME280;67251;50.844;7.978;2024-01-16T05:03:09;98078.78;;;-2.47;100.00
77877;BME280;67251;50.844;7.978;2024-01-16T05:05:34;98082.34;;;-2.48;100.00
77877;BME280;67251;50.844;7.978;2024-01-16T05:08:03;98075.44;;;-2.49;100.00
77877;BME280;67251;50.844;7.978;2024-01-16T05:10:28;98079.84;;;-2.50;100.00
77877;BME280;67251;50.844;7.978;2024-01-16T05:12:53;98074.63;;;-2.50;100.00
77877;BME280;67251;50.844;7.978;2024-01-16T05:15:19;98078.06;;;-2.49;100.00
77877;BME280;67251;50.844;7.978;2024-01-16T05:17:44;98081.66;;;-2.50;100.00
77877;BME280;67251;50.844;7.978;2024-01-16T05:20:10;98074.63;;;-2.50;100.00
77877;BME280;67251;50.844;7.978;2024-01-16T05:22:35;98078.22;;;-2.51;100.00
77877;BME280;67251;50.844;7.978;2024-01-16T05:25:01;98080.00;;;-2.51;100.00
77877;BME280;67251;50.844;7.978;2024-01-16T05:27:26;98079.03;;;-2.50;100.00
77877;BME280;67251;50.844;7.978;2024-01-16T05:29:51;98082.63;;;-2.51;100.00
77877;BME280;67251;50.844;7.978;2024-01-16T05:32:17;98081.81;;;-2.52;100.00
77877;BME280;67251;50.844;7.978;2024-01-16T05:34:42;98081.13;;;-2.54;100.00
77877;BME280;67251;50.844;7.978;2024-01-16T05:37:07;98081.13;;;-2.54;100.00
77877;BME280;67251;50.844;7.978;2024-01-16T05:39:33;98077.66;;;-2.54;100.00
77877;BME280;67251;50.844;7.978;2024-01-16T05:41:58;98078.50;;;-2.54;100.00
77877;BME280;67251;50.844;7.978;2024-01-16T05:44:24;98076.72;;;-2.53;100.00
77877;BME280;67251;50.844;7.978;2024-01-16T05:46:50;98081.94;;;-2.53;100.00
77877;BME280;67251;50.844;7.978;2024-01-16T05:49:15;98074.09;;;-2.53;100.00
77877;BME280;67251;50.844;7.978;2024-01-16T05:51:41;98074.09;;;-2.53;100.00
77877;BME280;67251;50.844;7.978;2024-01-16T05:54:06;98076.72;;;-2.53;100.00
77877;BME280;67251;50.844;7.978;2024-01-16T05:56:31;98070.75;;;-2.55;100.00
77877;BME280;67251;50.844;7.978;2024-01-16T05:58:57;98066.50;;;-2.57;100.00
77877;BME280;67251;50.844;7.978;2024-01-16T06:01:22;98074.34;;;-2.57;100.00
77877;BME280;67251;50.844;7.978;2024-01-16T06:03:48;98074.50;;;-2.58;100.00
77877;BME280;67251;50.844;7.978;2024-01-16T06:06:14;98076.28;;;-2.59;100.00
77877;BME280;67251;50.844;7.978;2024-01-16T06:08:39;98069.25;;;-2.58;100.00
77877;BME280;67251;50.844;7.978;2024-01-16T06:11:04;98065.81;;;-2.59;100.00
77877;BME280;67251;50.844;7.978;2024-01-16T06:13:30;98070.19;;;-2.59;100.00
77877;BME280;67251;50.844;7.978;2024-01-16T06:15:57;98067.72;;;-2.61;100.00
77877;BME280;67251;50.844;7.978;2024-01-16T06:18:22;98062.50;;;-2.61;100.00
77877;BME280;67251;50.844;7.978;2024-01-16T06:20:48;98062.50;;;-2.61;100.00
77877;BME280;67251;50.844;7.978;2024-01-16T06:23:13;98058.22;;;-2.62;100.00
77877;BME280;67251;50.844;7.978;2024-01-16T06:25:39;98068.69;;;-2.62;100.00
77877;BME280;67251;50.844;7.978;2024-01-16T06:28:05;98064.56;;;-2.64;100.00
77877;BME280;67251;50.844;7.978;2024-01-16T06:30:30;98068.97;;;-2.65;100.00
77877;BME280;67251;50.844;7.978;2024-01-16T06:32:56;98068.97;;;-2.65;100.00
77877;BME280;67251;50.844;7.978;2024-01-16T06:35:22;98066.50;;;-2.66;100.00
77877;BME280;67251;50.844;7.978;2024-01-16T06:37:48;98070.91;;;-2.67;100.00
77877;BME280;67251;50.844;7.978;2024-01-16T06:40:14;98072.69;;;-2.67;100.00
77877;BME280;67251;50.844;7.978;2024-01-16T06:42:39;98066.50;;;-2.66;100.00
77877;BME280;67251;50.844;7.978;2024-01-16T06:45:05;98069.94;;;-2.66;100.00
77877;BME280;67251;50.844;7.978;2024-01-16T06:47:31;98058.63;;;-2.66;100.00
77877;BME280;67251;50.844;7.978;2024-01-16T06:49:56;98060.44;;;-2.67;100.00
77877;BME280;67251;50.844;7.978;2024-01-16T06:52:21;98056.16;;;-2.68;100.00
77877;BME280;67251;50.844;7.978;2024-01-16T06:54:47;98064.97;;;-2.69;100.00
77877;BME280;67251;50.844;7.978;2024-01-16T06:57:12;98063.16;;;-2.68;100.00
77877;BME280;67251;50.844;7.978;2024-01-16T06:59:38;98060.69;;;-2.70;100.00
77877;BME280;67251;50.844;7.978;2024-01-16T07:02:03;98068.56;;;-2.70;100.00
77877;BME280;67251;50.844;7.978;2024-01-16T07:04:29;98057.25;;;-2.70;100.00
77877;BME280;67251;50.844;7.978;2024-01-16T07:06:56;98053.97;;;-2.72;100.00
77877;BME280;67251;50.844;7.978;2024-01-16T07:09:21;98054.78;;;-2.72;100.00
77877;BME280;67251;50.844;7.978;2024-01-16T07:11:47;98058.38;;;-2.73;100.00
77877;BME280;67251;50.844;7.978;2024-01-16T07:14:12;98058.50;;;-2.74;100.00
77877;BME280;67251;50.844;7.978;2024-01-16T07:16:38;98059.31;;;-2.74;100.00
77877;BME280;67251;50.844;7.978;2024-01-16T07:19:04;98069.09;;;-2.76;100.00
77877;BME280;67251;50.844;7.978;2024-01-16T07:21:29;98073.38;;;-2.75;100.00
77877;BME280;67251;50.844;7.978;2024-01-16T07:23:55;98072.53;;;-2.75;100.00
77877;BME280;67251;50.844;7.978;2024-01-16T07:26:20;98076.97;;;-2.76;100.00
77877;BME280;67251;50.844;7.978;2024-01-16T07:28:46;98082.19;;;-2.76;100.00
77877;BME280;67251;50.844;7.978;2024-01-16T07:31:13;98084.81;;;-2.76;100.00
77877;BME280;67251;50.844;7.978;2024-01-16T07:33:39;98085.50;;;-2.74;100.00
77877;BME280;67251;50.844;7.978;2024-01-16T07:36:06;98085.50;;;-2.74;100.00
77877;BME280;67251;50.844;7.978;2024-01-16T07:38:32;98087.03;;;-2.71;100.00
77877;BME280;67251;50.844;7.978;2024-01-16T07:40:58;98091.16;;;-2.69;100.00
77877;BME280;67251;50.844;7.978;2024-01-16T07:43:23;98089.25;;;-2.67;100.00
77877;BME280;67251;50.844;7.978;2024-01-16T07:45:49;98094.47;;;-2.67;100.00
77877;BME280;67251;50.844;7.978;2024-01-16T07:48:14;98097.91;;;-2.66;100.00
77877;BME280;67251;50.844;7.978;2024-01-16T07:50:40;98098.59;;;-2.64;100.00
77877;BME280;67251;50.844;7.978;2024-01-16T07:53:05;98090.47;;;-2.61;100.00
77877;BME280;67251;50.844;7.978;2024-01-16T07:55:31;98098.19;;;-2.60;100.00
77877;BME280;67251;50.844;7.978;2024-01-16T07:57:56;98092.00;;;-2.59;100.00
77877;BME280;67251;50.844;7.978;2024-01-16T08:00:21;98098.59;;;-2.54;100.00
77877;BME280;67251;50.844;7.978;2024-01-16T08:02:47;98105.53;;;-2.53;100.00
77877;BME280;67251;50.844;7.978;2024-01-16T08:05:12;98113.50;;;-2.45;100.00
77877;BME280;67251;50.844;7.978;2024-01-16T08:07:38;98121.91;;;-2.42;100.00
77877;BME280;67251;50.844;7.978;2024-01-16T08:10:04;98119.16;;;-2.40;100.00
77877;BME280;67251;50.844;7.978;2024-01-16T08:12:29;98113.09;;;-2.41;100.00
77877;BME280;67251;50.844;7.978;2024-01-16T08:14:54;98123.84;;;-2.44;100.00
77877;BME280;67251;50.844;7.978;2024-01-16T08:17:20;98115.28;;;-2.46;100.00
77877;BME280;67251;50.844;7.978;2024-01-16T08:19:45;98113.78;;;-2.48;100.00
77877;BME280;67251;50.844;7.978;2024-01-16T08:22:10;98118.88;;;-2.47;100.00
77877;BME280;67251;50.844;7.978;2024-01-16T08:24:37;98109.63;;;-2.41;100.00
77877;BME280;67251;50.844;7.978;2024-01-16T08:27:02;98112.56;;;-2.35;100.00
77877;BME280;67251;50.844;7.978;2024-01-16T08:29:28;98117.09;;;-2.27;100.00
77877;BME280;67251;50.844;7.978;2024-01-16T08:31:53;98108.69;;;-2.21;100.00
77877;BME280;67251;50.844;7.978;2024-01-16T08:34:19;98118.34;;;-2.12;100.00
77877;BME280;67251;50.844;7.978;2024-01-16T08:36:44;98111.00;;;-2.08;100.00
77877;BME280;67251;50.844;7.978;2024-01-16T08:39:10;98115.97;;;-2.05;100.00
77877;BME280;67251;50.844;7.978;2024-01-16T08:41:36;98115.28;;;-1.97;100.00
77877;BME280;67251;50.844;7.978;2024-01-16T08:44:02;98111.00;;;-1.98;100.00
77877;BME280;67251;50.844;7.978;2024-01-16T08:46:27;98122.03;;;-1.95;100.00
77877;BME280;67251;50.844;7.978;2024-01-16T08:48:53;98116.94;;;-1.96;100.00
77877;BME280;67251;50.844;7.978;2024-01-16T08:51:19;98112.38;;;-2.04;100.00
77877;BME280;67251;50.844;7.978;2024-01-16T08:53:44;98117.06;;;-2.08;100.00
77877;BME280;67251;50.844;7.978;2024-01-16T08:56:09;98113.94;;;-2.11;100.00
77877;BME280;67251;50.844;7.978;2024-01-16T08:58:38;98120.66;;;-2.09;100.00
77877;BME280;67251;50.844;7.978;2024-01-16T09:01:04;98119.03;;;-2.10;100.00
77877;BME280;67251;50.844;7.978;2024-01-16T09:03:31;98120.81;;;-2.10;100.00
77877;BME280;67251;50.844;7.978;2024-01-16T09:05:57;98134.06;;;-2.12;100.00
77877;BME280;67251;50.844;7.978;2024-01-16T09:08:22;98131.00;;;-2.17;100.00
77877;BME280;67251;50.844;7.978;2024-01-16T09:10:47;98130.59;;;-2.22;100.00
77877;BME280;67251;50.844;7.978;2024-01-16T09:13:13;98131.56;;;-2.13;100.00
77877;BME280;67251;50.844;7.978;2024-01-16T09:15:38;98130.06;;;-2.06;100.00
77877;BME280;67251;50.844;7.978;2024-01-16T09:18:05;98136.69;;;-1.92;100.00
77877;BME280;67251;50.844;7.978;2024-01-16T09:20:31;98129.63;;;-1.82;100.00
77877;BME280;67251;50.844;7.978;2024-01-16T09:22:56;98131.78;;;-1.68;100.00
77877;BME280;67251;50.844;7.978;2024-01-16T09:25:22;98144.19;;;-1.50;100.00
77877;BME280;67251;50.844;7.978;2024-01-16T09:27:50;98133.50;;;-1.39;100.00
77877;BME280;67251;50.844;7.978;2024-01-16T09:30:16;98135.38;;;-1.22;97.08
77877;BME280;67251;50.844;7.978;2024-01-16T09:32:41;98143.13;;;-0.93;94.63
77877;BME280;67251;50.844;7.978;2024-01-16T09:35:08;98129.72;;;-0.72;91.66
77877;BME280;67251;50.844;7.978;2024-01-16T09:37:34;98124.81;;;-0.39;89.17
77877;BME280;67251;50.844;7.978;2024-01-16T09:40:00;98132.03;;;-0.06;87.71
77877;BME280;67251;50.844;7.978;2024-01-16T09:42:26;98136.59;;;0.54;83.78
77877;BME280;67251;50.844;7.978;2024-01-16T09:44:53;98132.28;;;0.79;82.31
77877;BME280;67251;50.844;7.978;2024-01-16T09:47:20;98150.16;;;1.01;79.91
77877;BME280;67251;50.844;7.978;2024-01-16T09:49:46;98140.69;;;0.83;78.89
77877;BME280;67251;50.844;7.978;2024-01-16T09:52:13;98140.50;;;0.76;79.46
77877;BME280;67251;50.844;7.978;2024-01-16T09:54:38;98146.00;;;0.57;80.42
77877;BME280;67251;50.844;7.978;2024-01-16T09:57:06;98141.31;;;0.50;80.77
77877;BME280;67251;50.844;7.978;2024-01-16T09:59:32;98138.06;;;0.31;81.00
77877;BME280;67251;50.844;7.978;2024-01-16T10:02:01;98147.53;;;0.23;80.69
77877;BME280;67251;50.844;7.978;2024-01-16T10:04:31;98151.66;;;0.00;81.68
77877;BME280;67251;50.844;7.978;2024-01-16T10:06:58;98148.41;;;0.06;81.86
77877;BME280;67251;50.844;7.978;2024-01-16T10:09:23;98150.06;;;0.07;81.38
77877;BME280;67251;50.844;7.978;2024-01-16T10:11:50;98146.69;;;-0.03;80.91
77877;BME280;67251;50.844;7.978;2024-01-16T10:14:17;98154.88;;;-0.06;80.60
77877;BME280;67251;50.844;7.978;2024-01-16T10:16:59;98155.47;;;-0.30;81.22
77877;BME280;67251;50.844;7.978;2024-01-16T10:19:29;98149.16;;;-0.37;81.89
77877;BME280;67251;50.844;7.978;2024-01-16T10:22:02;98147.38;;;-0.37;81.63
77877;BME280;67251;50.844;7.978;2024-01-16T10:24:28;98151.72;;;-0.28;82.24
77877;BME280;67251;50.844;7.978;2024-01-16T10:27:00;98145.78;;;-0.12;81.06
77877;BME280;67251;50.844;7.978;2024-01-16T10:29:31;98147.94;;;0.11;80.14
77877;BME280;67251;50.844;7.978;2024-01-16T10:31:58;98147.03;;;0.20;78.98
77877;BME280;67251;50.844;7.978;2024-01-16T10:34:24;98148.28;;;0.34;78.04
77877;BME280;67251;50.844;7.978;2024-01-16T10:36:51;98148.19;;;0.43;77.46
77877;BME280;67251;50.844;7.978;2024-01-16T10:39:18;98141.69;;;0.56;75.76
77877;BME280;67251;50.844;7.978;2024-01-16T10:41:58;98141.44;;;0.67;75.21
77877;BME280;67251;50.844;7.978;2024-01-16T10:44:24;98133.78;;;0.56;74.57
77877;BME280;67251;50.844;7.978;2024-01-16T10:47:09;98128.22;;;0.59;75.12
77877;BME280;67251;50.844;7.978;2024-01-16T10:49:35;98129.22;;;0.66;74.74
77877;BME280;67251;50.844;7.978;2024-01-16T10:52:01;98127.09;;;0.61;73.60
77877;BME280;67251;50.844;7.978;2024-01-16T10:54:27;98116.03;;;0.58;73.49
77877;BME280;67251;50.844;7.978;2024-01-16T10:56:53;98116.88;;;0.58;72.61
77877;BME280;67251;50.844;7.978;2024-01-16T10:59:24;98119.16;;;0.53;74.05
77877;BME280;67251;50.844;7.978;2024-01-16T11:01:54;98114.69;;;0.54;73.84
77877;BME280;67251;50.844;7.978;2024-01-16T11:04:21;98109.28;;;0.29;74.46
77877;BME280;67251;50.844;7.978;2024-01-16T11:06:51;98111.59;;;0.32;75.16
77877;BME280;67251;50.844;7.978;2024-01-16T11:09:17;98098.16;;;-0.09;75.47
77877;BME280;67251;50.844;7.978;2024-01-16T11:11:47;98090.00;;;-0.23;77.05
77877;BME280;67251;50.844;7.978;2024-01-16T11:14:16;98089.91;;;-0.32;77.97
77877;BME280;67251;50.844;7.978;2024-01-16T11:16:42;98080.97;;;-0.21;77.23
77877;BME280;67251;50.844;7.978;2024-01-16T11:19:09;98082.38;;;-0.09;76.02
77877;BME280;67251;50.844;7.978;2024-01-16T11:21:37;98081.50;;;0.09;77.01
77877;BME280;67251;50.844;7.978;2024-01-16T11:24:04;98084.22;;;0.43;75.15
77877;BME280;67251;50.844;7.978;2024-01-16T11:26:34;98083.16;;;0.62;73.53
77877;BME280;67251;50.844;7.978;2024-01-16T11:31:51;98076.50;;;0.75;71.37
77877;BME280;67251;50.844;7.978;2024-01-16T11:37:12;98070.41;;;1.50;69.18
77877;BME280;67251;50.844;7.978;2024-01-16T11:39:38;98065.66;;;2.11;66.68
77877;BME280;67251;50.844;7.978;2024-01-16T11:42:04;98056.47;;;2.62;64.37
77877;BME280;67251;50.844;7.978;2024-01-16T11:44:49;98038.75;;;3.64;61.02
77877;BME280;67251;50.844;7.978;2024-01-16T11:47:20;98040.56;;;4.69;57.65
77877;BME280;67251;50.844;7.978;2024-01-16T11:49:47;98041.50;;;4.76;55.02
77877;BME280;67251;50.844;7.978;2024-01-16T11:52:13;98044.16;;;4.76;54.50
77877;BME280;67251;50.844;7.978;2024-01-16T11:54:40;98056.94;;;4.57;55.84
77877;BME280;67251;50.844;7.978;2024-01-16T12:00:06;98057.13;;;4.03;56.12
77877;BME280;67251;50.844;7.978;2024-01-16T12:02:49;98056.47;;;3.64;58.95
77877;BME280;67251;50.844;7.978;2024-01-16T12:05:14;98060.50;;;3.51;58.90
77877;BME280;67251;50.844;7.978;2024-01-16T12:07:46;98063.19;;;3.43;58.63
77877;BME280;67251;50.844;7.978;2024-01-16T12:10:14;98064.31;;;3.26;60.17
77877;BME280;67251;50.844;7.978;2024-01-16T12:12:39;98069.63;;;3.49;61.08
77877;BME280;67251;50.844;7.978;2024-01-16T12:15:05;98068.03;;;3.00;61.47
77877;BME280;67251;50.844;7.978;2024-01-16T12:17:32;98069.47;;;2.72;62.96
77877;BME280;67251;50.844;7.978;2024-01-16T12:19:58;98062.69;;;2.22;63.47
77877;BME280;67251;50.844;7.978;2024-01-16T12:22:24;98063.19;;;1.44;64.38
77877;BME280;67251;50.844;7.978;2024-01-16T12:24:50;98059.03;;;1.33;67.09
77877;BME280;67251;50.844;7.978;2024-01-16T12:27:20;98046.81;;;1.16;67.94
77877;BME280;67251;50.844;7.978;2024-01-16T12:29:46;98039.72;;;1.16;67.30
77877;BME280;67251;50.844;7.978;2024-01-16T12:32:12;98038.41;;;1.12;69.55
77877;BME280;67251;50.844;7.978;2024-01-16T12:34:49;98041.84;;;1.13;69.15
77877;BME280;67251;50.844;7.978;2024-01-16T12:37:14;98040.25;;;1.20;67.28
77877;BME280;67251;50.844;7.978;2024-01-16T12:39:40;98027.44;;;1.98;66.11
77877;BME280;67251;50.844;7.978;2024-01-16T12:42:08;98022.78;;;2.17;63.56
77877;BME280;67251;50.844;7.978;2024-01-16T12:44:35;98024.13;;;1.96;64.09
77877;BME280;67251;50.844;7.978;2024-01-16T12:47:01;98011.41;;;2.08;63.70
77877;BME280;67251;50.844;7.978;2024-01-16T12:49:27;98003.75;;;2.29;63.51
77877;BME280;67251;50.844;7.978;2024-01-16T12:52:21;98000.19;;;2.14;63.02
77877;BME280;67251;50.844;7.978;2024-01-16T12:54:48;97988.53;;;1.60;61.88
77877;BME280;67251;50.844;7.978;2024-01-16T12:57:19;97989.53;;;1.42;64.27
77877;BME280;67251;50.844;7.978;2024-01-16T12:59:45;97992.03;;;1.60;63.81
77877;BME280;67251;50.844;7.978;2024-01-16T13:02:32;97991.84;;;1.37;63.25
77877;BME280;67251;50.844;7.978;2024-01-16T13:04:59;97986.06;;;1.50;63.56